createdAt,value
2023-02-13T00:00:36.273Z,71
2023-02-13T00:01:45.427Z,72
2023-02-13T00:02:46.911Z,72
2023-02-13T00:03:48.455Z,71
2023-02-13T00:05:06.808Z,72
2023-02-13T00:06:46.515Z,72
2023-02-13T00:08:25.687Z,72
2023-02-13T00:09:27.129Z,72
2023-02-13T00:10:56.493Z,72
2023-02-13T00:11:58.818Z,72
2023-02-13T00:13:25.557Z,72
2023-02-13T00:17:35.425Z,72
2023-02-13T00:19:16.346Z,72
2023-02-13T00:20:18.589Z,72
2023-02-13T00:21:46.296Z,72
2023-02-13T00:24:16.527Z,72
2023-02-13T00:25:18.903Z,72
2023-02-13T00:30:06.022Z,72
2023-02-13T00:31:08.276Z,72
2023-02-13T00:32:10.690Z,72
2023-02-13T00:34:16.031Z,73
2023-02-13T00:37:36.080Z,73
2023-02-13T00:39:15.951Z,73
2023-02-13T00:40:18.238Z,73
2023-02-13T00:42:35.293Z,73
2023-02-13T00:45:56.056Z,73
2023-02-13T00:47:35.584Z,73
2023-02-13T00:48:37.016Z,73
2023-02-13T00:49:39.340Z,73
2023-02-13T00:51:47.062Z,73
2023-02-13T00:55:56.677Z,73
2023-02-13T00:56:59.040Z,73
2023-02-13T00:58:26.146Z,73
2023-02-13T00:59:27.570Z,73
2023-02-13T01:00:56.328Z,73
2023-02-13T01:01:58.812Z,73
2023-02-13T01:06:46.680Z,73
2023-02-13T01:08:25.736Z,73
2023-02-13T01:11:46.574Z,73
2023-02-13T01:12:48.894Z,73
2023-02-13T01:13:51.531Z,73
2023-02-13T01:15:06.558Z,73
2023-02-13T01:16:46.432Z,73
2023-02-13T01:19:16.622Z,73
2023-02-13T01:20:57.157Z,74
2023-02-13T01:21:59.492Z,74
2023-02-13T01:23:01.780Z,74
2023-02-13T01:24:17.004Z,74
2023-02-13T01:25:18.418Z,74
2023-02-13T01:27:35.408Z,74
2023-02-13T01:29:16.538Z,74
2023-02-13T01:31:46.697Z,74
2023-02-13T01:34:15.553Z,74
2023-02-13T01:35:56.608Z,74
2023-02-13T01:36:58.871Z,74
2023-02-13T01:38:01.219Z,74
2023-02-13T01:39:03.459Z,74
2023-02-13T01:40:06.608Z,74
2023-02-13T01:41:08.768Z,74
2023-02-13T01:43:26.229Z,74
2023-02-13T01:44:27.745Z,74
2023-02-13T01:45:29.120Z,74
2023-02-13T01:47:35.873Z,74
2023-02-13T01:50:06.450Z,74
2023-02-13T01:51:46.737Z,74
2023-02-13T01:52:48.951Z,74
2023-02-13T01:53:51.227Z,74
2023-02-13T01:55:06.773Z,74
2023-02-13T01:56:09.039Z,74
2023-02-13T01:57:11.212Z,74
2023-02-13T01:58:25.915Z,74
2023-02-13T02:00:56.606Z,74
2023-02-13T02:01:59.147Z,74
2023-02-13T02:04:17.025Z,74
2023-02-13T02:05:19.283Z,74
2023-02-13T02:06:21.478Z,74
2023-02-13T02:07:23.691Z,74
2023-02-13T02:08:26.382Z,74
2023-02-13T02:09:29.018Z,74
2023-02-13T02:10:30.379Z,74
2023-02-13T02:11:32.600Z,74
2023-02-13T02:12:35.953Z,74
2023-02-13T02:13:37.341Z,74
2023-02-13T02:14:38.753Z,74
2023-02-13T02:15:41.015Z,74
2023-02-13T02:16:46.063Z,74
2023-02-13T02:19:16.473Z,74
2023-02-13T02:20:18.683Z,74
2023-02-13T02:21:46.873Z,74
2023-02-13T02:22:49.065Z,74
2023-02-13T02:24:16.837Z,74
2023-02-13T02:25:56.907Z,74
2023-02-13T02:27:35.972Z,73
2023-02-13T02:29:16.278Z,73
2023-02-13T02:32:35.571Z,73
2023-02-13T02:34:16.801Z,73
2023-02-13T02:35:57.013Z,73
2023-02-13T02:37:35.268Z,73
2023-02-13T02:38:36.675Z,73
2023-02-13T02:40:06.618Z,73
2023-02-13T02:41:46.615Z,73
2023-02-13T02:44:15.196Z,73
2023-02-13T02:45:17.592Z,73
2023-02-13T02:46:45.713Z,73
2023-02-13T02:51:46.588Z,73
2023-02-13T02:54:16.368Z,73
2023-02-13T02:55:18.559Z,73
2023-02-13T02:57:35.932Z,73
2023-02-13T02:58:37.325Z,73
2023-02-13T02:59:38.737Z,73
2023-02-13T03:00:40.270Z,73
2023-02-13T03:01:41.679Z,73
2023-02-13T03:05:06.197Z,73
2023-02-13T03:06:08.607Z,73
2023-02-13T03:07:35.969Z,73
2023-02-13T03:08:37.369Z,73
2023-02-13T03:09:38.790Z,73
2023-02-13T03:10:40.190Z,73
2023-02-13T03:11:41.589Z,73
2023-02-13T03:12:42.997Z,73
2023-02-13T03:13:44.399Z,73
2023-02-13T03:16:45.224Z,73
2023-02-13T03:20:06.619Z,72
2023-02-13T03:21:09.099Z,72
2023-02-13T03:22:11.372Z,72
2023-02-13T03:23:13.657Z,72
2023-02-13T03:24:16.720Z,72
2023-02-13T03:25:56.399Z,72
2023-02-13T03:30:05.960Z,71
2023-02-13T03:32:35.519Z,71
2023-02-13T03:33:36.862Z,71
2023-02-13T03:35:06.479Z,71
2023-02-13T03:38:25.947Z,71
2023-02-13T03:39:28.215Z,71
2023-02-13T03:41:45.834Z,70
2023-02-13T03:42:47.234Z,70
2023-02-13T03:44:16.270Z,70
2023-02-13T03:45:56.407Z,70
2023-02-13T03:47:35.536Z,69
2023-02-13T03:53:26.067Z,69
2023-02-13T03:54:28.339Z,69
2023-02-13T03:57:35.745Z,70
2023-02-13T03:59:16.729Z,70
2023-02-13T04:00:18.874Z,70
2023-02-13T04:03:25.232Z,69
2023-02-13T04:07:36.244Z,69
2023-02-13T04:08:37.583Z,69
2023-02-13T04:10:05.724Z,69
2023-02-13T04:11:45.523Z,69
2023-02-13T04:17:36.215Z,69
2023-02-13T04:19:16.819Z,69
2023-02-13T04:20:18.953Z,69
2023-02-13T04:24:16.534Z,69
2023-02-13T04:25:18.853Z,69
2023-02-13T04:26:20.393Z,69
2023-02-13T04:27:22.769Z,69
2023-02-13T04:28:25.112Z,69
2023-02-13T04:29:27.489Z,69
2023-02-13T04:30:56.968Z,69
2023-02-13T04:31:59.465Z,69
2023-02-13T04:33:26.145Z,69
2023-02-13T04:35:07.027Z,69
2023-02-13T04:36:09.278Z,69
2023-02-13T04:37:36.230Z,69
2023-02-13T04:38:37.934Z,69
2023-02-13T04:39:39.317Z,69
2023-02-13T04:41:45.595Z,69
2023-02-13T04:42:46.995Z,69
2023-02-13T04:43:48.410Z,69
2023-02-13T04:45:05.636Z,69
2023-02-13T04:47:37.018Z,69
2023-02-13T04:55:56.117Z,68
2023-02-13T04:56:58.379Z,68
2023-02-13T04:57:59.783Z,68
2023-02-13T04:59:01.974Z,68
2023-02-13T05:00:06.562Z,68
2023-02-13T05:01:45.864Z,68
2023-02-13T05:02:47.312Z,68
2023-02-13T05:03:48.713Z,68
2023-02-13T05:05:56.809Z,68
2023-02-13T05:06:59.071Z,68
2023-02-13T05:08:26.881Z,68
2023-02-13T05:09:28.279Z,68
2023-02-13T05:10:30.541Z,68
2023-02-13T05:11:32.892Z,68
2023-02-13T05:12:36.535Z,68
2023-02-13T05:13:39.008Z,68
2023-02-13T05:15:06.439Z,68
2023-02-13T05:16:08.781Z,68
2023-02-13T05:17:11.007Z,68
2023-02-13T05:18:13.577Z,68
2023-02-13T05:20:57.068Z,68
2023-02-13T05:21:59.596Z,68
2023-02-13T05:24:16.491Z,68
2023-02-13T05:28:26.040Z,68
2023-02-13T05:30:55.306Z,68
2023-02-13T05:33:26.792Z,68
2023-02-13T05:37:36.809Z,68
2023-02-13T05:39:16.823Z,68
2023-02-13T05:40:19.048Z,68
2023-02-13T05:41:45.877Z,68
2023-02-13T05:42:47.352Z,68
2023-02-13T05:43:48.801Z,68
2023-02-13T05:44:50.209Z,68
2023-02-13T05:45:52.450Z,68
2023-02-13T05:46:53.840Z,68
2023-02-13T05:47:56.457Z,68
2023-02-13T05:50:06.591Z,68
2023-02-13T05:51:08.884Z,68
2023-02-13T05:52:35.502Z,68
2023-02-13T05:55:06.420Z,67
2023-02-13T05:56:45.632Z,67
2023-02-13T05:57:47.038Z,67
2023-02-13T05:58:48.449Z,67
2023-02-13T05:59:49.876Z,67
2023-02-13T06:00:51.334Z,67
2023-02-13T06:01:52.718Z,67
2023-02-13T06:03:26.567Z,67
2023-02-13T06:06:45.629Z,67
2023-02-13T06:08:26.593Z,67
2023-02-13T06:10:06.070Z,67
2023-02-13T06:12:36.737Z,67
2023-02-13T06:13:39.017Z,67
2023-02-13T06:14:41.537Z,67
2023-02-13T06:15:56.419Z,67
2023-02-13T06:16:58.684Z,67
2023-02-13T06:20:05.715Z,67
2023-02-13T06:21:45.407Z,67
2023-02-13T06:23:26.625Z,67
2023-02-13T06:25:06.949Z,67
2023-02-13T06:26:09.195Z,67
2023-02-13T06:27:36.266Z,67
2023-02-13T06:29:16.557Z,67
2023-02-13T06:35:06.209Z,67
2023-02-13T06:36:08.453Z,67
2023-02-13T06:37:09.883Z,67
2023-02-13T06:39:16.728Z,67
2023-02-13T06:40:19.373Z,67
2023-02-13T06:41:45.466Z,68
2023-02-13T06:44:15.764Z,68
2023-02-13T06:45:17.195Z,68
2023-02-13T06:46:19.617Z,68
2023-02-13T06:47:36.649Z,68
2023-02-13T06:48:39.022Z,68
2023-02-13T06:49:40.439Z,68
2023-02-13T06:50:42.803Z,68
2023-02-13T06:51:45.090Z,68
2023-02-13T06:52:46.508Z,68
2023-02-13T06:53:47.882Z,68
2023-02-13T06:55:06.308Z,68
2023-02-13T06:56:45.498Z,68
2023-02-13T06:58:26.458Z,68
2023-02-13T06:59:27.858Z,68
2023-02-13T07:00:29.311Z,68
2023-02-13T07:01:45.216Z,69
2023-02-13T07:02:46.648Z,69
2023-02-13T07:03:48.027Z,69
2023-02-13T07:05:05.485Z,69
2023-02-13T07:06:06.910Z,69
2023-02-13T07:07:08.379Z,69
2023-02-13T07:08:09.850Z,69
2023-02-13T07:09:11.246Z,69
2023-02-13T07:10:12.626Z,69
2023-02-13T07:11:13.988Z,69
2023-02-13T07:12:15.354Z,69
2023-02-13T07:15:05.308Z,69
2023-02-13T07:16:06.816Z,69
2023-02-13T07:17:08.326Z,69
2023-02-13T07:18:09.811Z,69
2023-02-13T07:19:15.467Z,69
2023-02-13T07:20:16.851Z,69
2023-02-13T07:21:18.267Z,69
2023-02-13T07:25:05.571Z,69
2023-02-13T07:28:25.962Z,70
2023-02-13T07:29:27.391Z,70
2023-02-13T07:30:28.902Z,69
2023-02-13T07:31:30.335Z,69
2023-02-13T07:32:31.742Z,69
2023-02-13T07:33:33.410Z,69
2023-02-13T07:35:05.922Z,69
2023-02-13T07:38:25.508Z,69
2023-02-13T07:39:26.871Z,70
2023-02-13T07:41:45.108Z,70
2023-02-13T07:42:46.510Z,70
2023-02-13T07:43:47.957Z,70
2023-02-13T07:44:49.343Z,70
2023-02-13T07:45:50.728Z,70
2023-02-13T07:46:52.175Z,70
2023-02-13T07:49:15.452Z,70
2023-02-13T07:50:16.843Z,70
2023-02-13T07:51:45.885Z,70
2023-02-13T07:52:47.327Z,70
2023-02-13T07:54:15.310Z,70
2023-02-13T07:55:16.765Z,70
2023-02-13T07:56:18.184Z,70
2023-02-13T07:57:19.591Z,70
2023-02-13T07:58:25.886Z,70
2023-02-13T07:59:27.274Z,70
2023-02-13T08:01:45.771Z,70
2023-02-13T08:03:25.140Z,70
2023-02-13T08:05:05.725Z,70
2023-02-13T08:06:07.118Z,70
2023-02-13T08:07:08.554Z,70
2023-02-13T08:08:09.986Z,70
2023-02-13T08:10:05.553Z,70
2023-02-13T08:11:06.924Z,70
2023-02-13T08:12:08.278Z,70
2023-02-13T08:13:09.672Z,70
2023-02-13T08:14:11.109Z,70
2023-02-13T08:15:12.607Z,70
2023-02-13T08:16:14.065Z,70
2023-02-13T08:18:25.748Z,71
2023-02-13T08:19:27.130Z,71
2023-02-13T08:23:25.546Z,71
2023-02-13T08:24:26.967Z,70
2023-02-13T08:26:45.503Z,70
2023-02-13T08:27:46.880Z,70
2023-02-13T08:28:48.279Z,70
2023-02-13T08:30:05.414Z,70
2023-02-13T08:31:06.891Z,70
2023-02-13T08:32:08.342Z,70
2023-02-13T08:35:05.866Z,70
2023-02-13T08:36:45.404Z,70
2023-02-13T08:39:15.708Z,70
2023-02-13T08:40:17.050Z,70
2023-02-13T08:41:45.072Z,70
2023-02-13T08:42:46.421Z,70
2023-02-13T08:45:05.081Z,70
2023-02-13T08:46:06.545Z,70
2023-02-13T08:47:07.920Z,70
2023-02-13T08:48:09.272Z,70
2023-02-13T08:49:10.624Z,70
2023-02-13T08:50:11.970Z,70
2023-02-13T08:51:13.337Z,70
2023-02-13T08:52:35.549Z,70
2023-02-13T08:53:36.916Z,70
2023-02-13T08:54:38.307Z,70
2023-02-13T08:55:55.748Z,70
2023-02-13T08:57:35.530Z,70
2023-02-13T08:58:36.921Z,70
2023-02-13T09:00:55.946Z,70
2023-02-13T09:01:57.413Z,70
2023-02-13T09:03:25.553Z,70
2023-02-13T09:04:26.915Z,70
2023-02-13T09:05:28.314Z,70
2023-02-13T09:06:29.890Z,70
2023-02-13T09:07:31.474Z,70
2023-02-13T09:10:05.959Z,70
2023-02-13T09:11:07.370Z,70
2023-02-13T09:12:35.603Z,70
2023-02-13T09:13:37.047Z,70
2023-02-13T09:14:38.514Z,70
2023-02-13T09:15:39.931Z,70
2023-02-13T09:16:41.403Z,70
2023-02-13T09:17:42.888Z,70
2023-02-13T09:18:44.335Z,70
2023-02-13T09:19:45.752Z,70
2023-02-13T09:21:45.568Z,69
2023-02-13T09:22:46.981Z,69
2023-02-13T09:23:48.520Z,69
2023-02-13T09:24:49.910Z,69
2023-02-13T09:25:55.780Z,69
2023-02-13T09:26:57.560Z,69
2023-02-13T09:28:25.146Z,69
2023-02-13T09:30:05.565Z,69
2023-02-13T09:31:07.188Z,69
2023-02-13T09:33:25.544Z,69
2023-02-13T09:35:05.529Z,69
2023-02-13T09:36:06.889Z,69
2023-02-13T09:37:35.757Z,69
2023-02-13T09:39:15.744Z,69
2023-02-13T09:40:17.206Z,69
2023-02-13T09:41:45.413Z,69
2023-02-13T09:42:46.786Z,69
2023-02-13T09:43:48.166Z,69
2023-02-13T09:44:49.521Z,69
2023-02-13T09:45:50.977Z,69
2023-02-13T09:46:52.374Z,69
2023-02-13T09:47:53.764Z,69
2023-02-13T09:49:15.070Z,69
2023-02-13T09:50:16.441Z,69
2023-02-13T09:51:45.385Z,69
2023-02-13T09:52:46.763Z,70
2023-02-13T09:53:48.251Z,69
2023-02-13T09:54:49.629Z,69
2023-02-13T09:55:50.968Z,69
2023-02-13T09:56:52.372Z,69
2023-02-13T09:57:53.747Z,69
2023-02-13T09:58:55.113Z,70
2023-02-13T09:59:56.481Z,69
2023-02-13T10:00:57.933Z,69
2023-02-13T10:02:35.855Z,69
2023-02-13T10:03:37.215Z,69
2023-02-13T10:04:38.613Z,69
2023-02-13T10:05:39.983Z,69
2023-02-13T10:06:41.361Z,69
2023-02-13T10:07:42.713Z,69
2023-02-13T10:08:44.098Z,69
2023-02-13T10:09:45.483Z,69
2023-02-13T10:10:46.852Z,70
2023-02-13T10:11:48.256Z,69
2023-02-13T10:12:50.373Z,69
2023-02-13T10:13:52.168Z,69
2023-02-13T10:14:53.591Z,69
2023-02-13T10:15:55.175Z,69
2023-02-13T10:16:56.613Z,69
2023-02-13T10:17:57.951Z,70
2023-02-13T10:18:59.306Z,70
2023-02-13T10:20:00.655Z,70
2023-02-13T10:21:02.012Z,70
2023-02-13T10:22:03.359Z,70
2023-02-13T10:23:04.724Z,70
2023-02-13T10:24:15.503Z,70
2023-02-13T10:25:55.220Z,70
2023-02-13T10:26:56.632Z,70
2023-02-13T10:27:57.966Z,70
2023-02-13T10:28:59.350Z,70
2023-02-13T10:30:05.418Z,70
2023-02-13T10:31:45.455Z,70
2023-02-13T10:32:46.917Z,70
2023-02-13T10:34:15.221Z,70
2023-02-13T10:35:16.572Z,70
2023-02-13T10:36:17.933Z,69
2023-02-13T10:38:25.368Z,69
2023-02-13T10:40:55.776Z,69
2023-02-13T10:42:36.532Z,69
2023-02-13T10:43:37.992Z,69
2023-02-13T10:44:39.369Z,69
2023-02-13T10:45:55.532Z,69
2023-02-13T10:47:35.041Z,69
2023-02-13T10:50:05.092Z,69
2023-02-13T10:51:45.164Z,69
2023-02-13T10:52:46.523Z,69
2023-02-13T10:53:47.883Z,69
2023-02-13T10:54:49.258Z,69
2023-02-13T10:55:50.618Z,69
2023-02-13T10:56:51.978Z,69
2023-02-13T10:57:53.333Z,69
2023-02-13T10:58:54.736Z,69
2023-02-13T11:00:05.311Z,69
2023-02-13T11:01:45.084Z,69
2023-02-13T11:02:46.490Z,69
2023-02-13T11:03:47.864Z,69
2023-02-13T11:05:05.483Z,69
2023-02-13T11:06:06.881Z,69
2023-02-13T11:07:36.796Z,69
2023-02-13T11:08:39.019Z,69
2023-02-13T11:10:06.159Z,69
2023-02-13T11:11:07.567Z,69
2023-02-13T11:12:08.988Z,69
2023-02-13T11:13:25.825Z,68
2023-02-13T11:14:27.262Z,68
2023-02-13T11:15:28.640Z,68
2023-02-13T11:16:30.103Z,68
2023-02-13T11:17:31.563Z,68
2023-02-13T11:18:33.725Z,68
2023-02-13T11:20:05.424Z,68
2023-02-13T11:21:06.801Z,68
2023-02-13T11:22:08.720Z,68
2023-02-13T11:23:10.120Z,68
2023-02-13T11:24:11.477Z,68
2023-02-13T11:25:12.908Z,68
2023-02-13T11:26:45.050Z,68
2023-02-13T11:27:46.461Z,68
2023-02-13T11:29:15.269Z,68
2023-02-13T11:31:45.578Z,68
2023-02-13T11:32:46.976Z,68
2023-02-13T11:33:48.359Z,67
2023-02-13T11:35:05.040Z,67
2023-02-13T11:36:45.595Z,67
2023-02-13T11:37:46.983Z,67
2023-02-13T11:39:15.605Z,66
2023-02-13T11:40:17.013Z,66
2023-02-13T11:41:18.429Z,66
2023-02-13T11:43:25.187Z,65
2023-02-13T11:44:26.810Z,65
2023-02-13T11:45:28.179Z,65
2023-02-13T11:46:29.686Z,65
2023-02-13T11:47:31.138Z,65
2023-02-13T11:48:32.612Z,65
2023-02-13T11:50:05.611Z,65
2023-02-13T11:52:35.205Z,65
2023-02-13T11:54:15.115Z,65
2023-02-13T11:55:16.526Z,65
2023-02-13T11:57:03.041Z,65
2023-02-13T11:58:04.590Z,65
2023-02-13T11:59:06.055Z,65
2023-02-13T12:00:07.451Z,65
2023-02-13T12:01:08.885Z,65
2023-02-13T12:02:10.330Z,65
2023-02-13T12:03:11.859Z,65
2023-02-13T12:04:13.440Z,65
2023-02-13T12:05:15.028Z,65
2023-02-13T12:06:45.360Z,65
2023-02-13T12:07:46.747Z,65
2023-02-13T12:08:48.147Z,65
2023-02-13T12:10:55.577Z,65
2023-02-13T12:13:25.472Z,65
2023-02-13T12:15:05.440Z,65
2023-02-13T12:16:06.883Z,65
2023-02-13T12:17:10.803Z,65
2023-02-13T12:18:12.296Z,65
2023-02-13T12:19:15.024Z,64
2023-02-13T12:20:16.454Z,64
2023-02-13T12:21:46.983Z,64
2023-02-13T12:22:48.400Z,63
2023-02-13T12:23:49.851Z,63
2023-02-13T12:24:51.279Z,63
2023-02-13T12:25:52.711Z,63
2023-02-13T12:26:54.164Z,63
2023-02-13T12:27:55.606Z,63
2023-02-13T12:28:57.485Z,63
2023-02-13T12:30:05.035Z,63
2023-02-13T12:31:06.461Z,63
2023-02-13T12:32:07.872Z,63
2023-02-13T12:33:09.250Z,63
2023-02-13T12:34:10.650Z,63
2023-02-13T12:35:55.316Z,63
2023-02-13T12:37:35.810Z,63
2023-02-13T12:39:15.022Z,63
2023-02-13T12:40:16.398Z,64
2023-02-13T12:41:17.809Z,63
2023-02-13T12:42:19.249Z,63
2023-02-13T12:43:20.742Z,63
2023-02-13T12:44:22.107Z,63
2023-02-13T12:45:55.043Z,63
2023-02-13T12:46:56.428Z,63
2023-02-13T12:48:25.157Z,63
2023-02-13T12:50:05.809Z,63
2023-02-13T12:51:07.184Z,63
2023-02-13T12:52:08.551Z,63
2023-02-13T12:54:15.518Z,63
2023-02-13T12:55:16.888Z,63
2023-02-13T12:56:18.238Z,63
2023-02-13T12:59:15.830Z,63
2023-02-13T13:00:55.231Z,63
2023-02-13T13:01:56.739Z,63
2023-02-13T13:02:58.472Z,63
2023-02-13T13:03:59.823Z,63
2023-02-13T13:05:01.200Z,63
2023-02-13T13:06:11.244Z,63
2023-02-13T13:07:13.160Z,63
2023-02-13T13:09:15.823Z,63
2023-02-13T13:10:17.302Z,63
2023-02-13T13:11:18.759Z,63
2023-02-13T13:12:35.010Z,62
2023-02-13T13:14:15.501Z,62
2023-02-13T13:15:55.850Z,62
2023-02-13T13:16:57.319Z,62
2023-02-13T13:17:58.787Z,62
2023-02-13T13:19:15.025Z,62
2023-02-13T13:20:16.459Z,62
2023-02-13T13:23:25.457Z,61
2023-02-13T13:25:55.386Z,60
2023-02-13T13:26:56.813Z,60
2023-02-13T13:28:25.857Z,60
2023-02-13T13:29:27.231Z,60
2023-02-13T13:30:55.160Z,60
2023-02-13T13:31:56.739Z,60
2023-02-13T13:34:15.694Z,59
2023-02-13T13:35:17.102Z,59
2023-02-13T13:36:18.812Z,59
2023-02-13T13:39:15.168Z,58
2023-02-13T13:40:16.573Z,58
2023-02-13T13:41:17.991Z,58
2023-02-13T13:43:25.512Z,58
2023-02-13T13:44:26.961Z,57
2023-02-13T13:45:28.380Z,57
2023-02-13T13:48:25.326Z,57
2023-02-13T13:50:05.761Z,57
2023-02-13T13:51:07.241Z,57
2023-02-13T13:52:08.641Z,58
2023-02-13T13:53:10.379Z,57
2023-02-13T13:54:11.920Z,57
2023-02-13T13:55:13.571Z,57
2023-02-13T13:56:14.970Z,57
2023-02-13T13:57:16.361Z,58
2023-02-13T13:58:25.292Z,58
2023-02-13T13:59:26.763Z,58
2023-02-13T14:00:28.188Z,57
2023-02-13T14:01:30.880Z,57
2023-02-13T14:02:32.440Z,57
2023-02-13T14:03:34.081Z,56
2023-02-13T14:05:04.931Z,56
2023-02-13T14:06:06.315Z,56
2023-02-13T14:07:07.712Z,56
2023-02-13T14:09:16.069Z,56
2023-02-13T14:10:17.471Z,56
2023-02-13T14:11:18.879Z,57
2023-02-13T14:12:20.238Z,57
2023-02-13T14:13:21.672Z,57
2023-02-13T14:14:23.372Z,56
2023-02-13T14:15:55.496Z,56
2023-02-13T14:16:56.908Z,56
2023-02-13T14:17:58.317Z,55
2023-02-13T14:19:15.273Z,55
2023-02-13T14:20:16.726Z,55
2023-02-13T14:21:18.139Z,55
2023-02-13T14:23:25.115Z,55
2023-02-13T14:24:26.501Z,55
2023-02-13T14:25:27.973Z,55
2023-02-13T14:26:29.378Z,55
2023-02-13T14:27:35.565Z,56
2023-02-13T14:28:37.123Z,56
2023-02-13T14:29:38.536Z,56
2023-02-13T14:30:40.011Z,57
2023-02-13T14:32:34.936Z,57
2023-02-13T14:33:36.334Z,57
2023-02-13T14:35:05.586Z,57
2023-02-13T14:36:07.012Z,57
2023-02-13T14:37:08.694Z,57
2023-02-13T14:38:24.974Z,57
2023-02-13T14:40:05.235Z,57
2023-02-13T14:41:06.629Z,57
2023-02-13T14:42:08.015Z,57
2023-02-13T14:43:09.406Z,57
2023-02-13T14:44:10.791Z,57
2023-02-13T14:45:12.812Z,57
2023-02-13T14:46:46.831Z,57
2023-02-13T14:49:15.441Z,57
2023-02-13T14:50:56.564Z,57
2023-02-13T14:51:58.196Z,57
2023-02-13T14:52:59.824Z,57
2023-02-13T14:54:01.250Z,57
2023-02-13T14:55:02.665Z,57
2023-02-13T14:56:04.030Z,57
2023-02-13T14:57:05.388Z,57
2023-02-13T14:58:06.868Z,57
2023-02-13T14:59:15.433Z,57
2023-02-13T15:00:16.862Z,58
2023-02-13T15:01:45.394Z,57
2023-02-13T15:02:46.859Z,58
2023-02-13T15:05:54.926Z,57
2023-02-13T15:06:56.311Z,57
2023-02-13T15:07:57.687Z,58
2023-02-13T15:08:59.051Z,58
2023-02-13T15:10:55.348Z,57
2023-02-13T15:11:56.782Z,57
2023-02-13T15:12:58.096Z,57
2023-02-13T15:13:59.432Z,57
2023-02-13T15:15:05.376Z,57
2023-02-13T15:16:06.833Z,57
2023-02-13T15:17:34.902Z,57
2023-02-13T15:19:15.228Z,57
2023-02-13T15:20:17.632Z,57
2023-02-13T15:21:19.577Z,57
2023-02-13T15:22:20.952Z,57
2023-02-13T15:23:22.330Z,57
2023-02-13T15:24:23.670Z,57
2023-02-13T15:25:26.721Z,57
2023-02-13T15:26:28.227Z,57
2023-02-13T15:27:34.896Z,57
2023-02-13T15:28:36.243Z,57
2023-02-13T15:30:04.942Z,58
2023-02-13T15:31:06.462Z,58
2023-02-13T15:32:07.970Z,58
2023-02-13T15:33:24.908Z,58
2023-02-13T15:34:26.227Z,58
2023-02-13T15:35:27.610Z,58
2023-02-13T15:36:28.978Z,58
2023-02-13T15:38:25.527Z,58
2023-02-13T15:39:26.864Z,58
2023-02-13T15:40:28.246Z,58
2023-02-13T15:41:29.603Z,58
2023-02-13T15:42:30.972Z,58
2023-02-13T15:43:32.316Z,58
2023-02-13T15:44:33.647Z,58
2023-02-13T15:45:34.962Z,58
2023-02-13T15:46:45.512Z,58
2023-02-13T15:47:46.879Z,58
2023-02-13T15:50:05.100Z,58
2023-02-13T15:51:06.486Z,58
2023-02-13T15:52:07.842Z,58
2023-02-13T15:53:09.214Z,58
2023-02-13T15:54:10.608Z,58
2023-02-13T15:55:11.965Z,58
2023-02-13T15:56:13.326Z,58
2023-02-13T15:57:14.738Z,59
2023-02-13T15:58:16.100Z,59
2023-02-13T15:59:17.422Z,59
2023-02-13T16:00:18.855Z,59
2023-02-13T16:01:20.281Z,59
2023-02-13T16:02:21.724Z,59
2023-02-13T16:03:25.508Z,59
2023-02-13T16:04:26.925Z,59
2023-02-13T16:05:55.380Z,60
2023-02-13T16:06:56.819Z,60
2023-02-13T16:07:58.240Z,60
2023-02-13T16:08:59.612Z,60
2023-02-13T16:10:01.056Z,60
2023-02-13T16:11:02.455Z,60
2023-02-13T16:13:24.924Z,60
2023-02-13T16:14:26.325Z,60
2023-02-13T16:15:27.724Z,60
2023-02-13T16:16:46.509Z,60
2023-02-13T16:17:47.875Z,60
2023-02-13T16:18:49.251Z,60
2023-02-13T16:19:50.656Z,60
2023-02-13T16:20:55.285Z,60
2023-02-13T16:21:56.756Z,61
2023-02-13T16:22:58.149Z,61
2023-02-13T16:23:59.568Z,61
2023-02-13T16:25:05.404Z,61
2023-02-13T16:28:25.576Z,61
2023-02-13T16:29:26.971Z,61
2023-02-13T16:30:28.768Z,61
2023-02-13T16:32:35.077Z,61
2023-02-13T16:33:37.471Z,61
2023-02-13T16:36:45.698Z,61
2023-02-13T16:37:47.105Z,61
2023-02-13T16:38:48.538Z,61
2023-02-13T16:39:49.933Z,61
2023-02-13T16:40:51.379Z,61
2023-02-13T16:41:52.834Z,61
2023-02-13T16:42:54.267Z,61
2023-02-13T16:43:55.712Z,61
2023-02-13T16:44:57.077Z,61
2023-02-13T16:45:58.503Z,61
2023-02-13T16:49:14.920Z,61
2023-02-13T16:50:17.274Z,61
2023-02-13T16:54:15.070Z,61
2023-02-13T16:55:54.889Z,61
2023-02-13T16:57:35.063Z,62
2023-02-13T16:59:15.172Z,61
2023-02-13T17:00:55.193Z,62
2023-02-13T17:01:56.614Z,62
2023-02-13T17:03:25.392Z,62
2023-02-13T17:04:26.869Z,62
2023-02-13T17:05:28.298Z,62
2023-02-13T17:06:46.144Z,62
2023-02-13T17:07:47.690Z,62
2023-02-13T17:08:49.103Z,62
2023-02-13T17:10:06.463Z,62
2023-02-13T17:11:08.748Z,62
2023-02-13T17:12:10.992Z,62
2023-02-13T17:13:13.225Z,62
2023-02-13T17:14:16.348Z,62
2023-02-13T17:15:17.753Z,62
2023-02-13T17:16:20.135Z,62
2023-02-13T17:17:21.607Z,62
2023-02-13T17:19:16.063Z,62
2023-02-13T17:20:57.218Z,62
2023-02-13T17:22:35.203Z,62
2023-02-13T17:23:36.603Z,62
2023-02-13T17:25:06.272Z,62
2023-02-13T17:26:08.761Z,62
2023-02-13T17:27:10.301Z,62
2023-02-13T17:28:12.573Z,62
2023-02-13T17:29:14.779Z,62
2023-02-13T17:30:17.141Z,62
2023-02-13T17:31:19.237Z,62
2023-02-13T17:32:21.799Z,62
2023-02-13T17:33:23.238Z,62
2023-02-13T17:34:24.675Z,62
2023-02-13T17:35:26.031Z,62
2023-02-13T17:37:35.694Z,62
2023-02-13T17:38:37.121Z,62
2023-02-13T17:40:05.876Z,62
2023-02-13T17:41:45.678Z,62
2023-02-13T17:42:47.437Z,62
2023-02-13T17:43:48.830Z,62
2023-02-13T17:45:05.355Z,62
2023-02-13T17:46:06.832Z,62
2023-02-13T17:47:09.040Z,62
2023-02-13T17:48:11.341Z,62
2023-02-13T17:50:10.429Z,62
2023-02-13T17:51:13.021Z,62
2023-02-13T17:52:15.430Z,62
2023-02-13T17:53:25.137Z,62
2023-02-13T17:55:05.611Z,62
2023-02-13T17:56:07.820Z,62
2023-02-13T17:57:09.241Z,62
2023-02-13T17:58:10.674Z,62
2023-02-13T17:59:15.612Z,62
2023-02-13T18:00:17.027Z,62
2023-02-13T18:01:19.431Z,62
2023-02-13T18:02:34.859Z,62
2023-02-13T18:03:36.309Z,62
2023-02-13T18:04:37.732Z,62
2023-02-13T18:05:55.726Z,62
2023-02-13T18:06:57.989Z,62
2023-02-13T18:08:00.178Z,62
2023-02-13T18:09:16.639Z,62
2023-02-13T18:10:18.016Z,62
2023-02-13T18:11:51.528Z,62
2023-02-13T18:13:25.040Z,62
2023-02-13T18:15:05.925Z,62
2023-02-13T18:16:08.227Z,62
2023-02-13T18:17:10.456Z,62
2023-02-13T18:18:12.695Z,62
2023-02-13T18:19:15.830Z,62
2023-02-13T18:20:18.253Z,62
2023-02-13T18:23:25.516Z,63
2023-02-13T18:24:26.877Z,62
2023-02-13T18:27:35.141Z,62
2023-02-13T18:28:37.427Z,62
2023-02-13T18:29:38.824Z,62
2023-02-13T18:30:55.785Z,62
2023-02-13T18:31:58.210Z,62
2023-02-13T18:33:00.613Z,62
2023-02-13T18:34:15.719Z,62
2023-02-13T18:35:55.196Z,62
2023-02-13T18:36:57.438Z,62
2023-02-13T18:37:59.980Z,62
2023-02-13T18:39:02.289Z,62
2023-02-13T18:40:04.596Z,62
2023-02-13T18:41:06.859Z,62
2023-02-13T18:42:09.094Z,62
2023-02-13T18:43:26.268Z,62
2023-02-13T18:45:05.741Z,62
2023-02-13T18:46:07.172Z,62
2023-02-13T18:47:09.490Z,62
2023-02-13T18:48:26.529Z,62
2023-02-13T18:50:06.515Z,62
2023-02-13T18:51:08.764Z,62
2023-02-13T18:52:35.238Z,62
2023-02-13T18:53:36.678Z,62
2023-02-13T18:54:38.975Z,62
2023-02-13T18:55:40.395Z,62
2023-02-13T18:56:45.191Z,62
2023-02-13T18:57:47.595Z,62
2023-02-13T18:58:49.785Z,62
2023-02-13T19:00:05.688Z,62
2023-02-13T19:01:07.416Z,62
2023-02-13T19:02:35.050Z,62
2023-02-13T19:04:15.364Z,61
2023-02-13T19:06:44.858Z,62
2023-02-13T19:07:47.155Z,62
2023-02-13T19:08:49.542Z,62
2023-02-13T19:09:51.788Z,62
2023-02-13T19:10:56.374Z,62
2023-02-13T19:14:15.890Z,62
2023-02-13T19:15:18.540Z,62
2023-02-13T19:16:20.032Z,62
2023-02-13T19:18:26.218Z,62
2023-02-13T19:20:06.111Z,62
2023-02-13T19:21:45.832Z,62
2023-02-13T19:22:48.069Z,62
2023-02-13T19:24:15.650Z,62
2023-02-13T19:25:18.011Z,62
2023-02-13T19:26:46.469Z,62
2023-02-13T19:27:48.737Z,62
2023-02-13T19:28:51.022Z,62
2023-02-13T19:29:53.252Z,62
2023-02-13T19:30:56.182Z,62
2023-02-13T19:31:58.468Z,62
2023-02-13T19:33:25.781Z,62
2023-02-13T19:35:05.526Z,62
2023-02-13T19:36:07.780Z,62
2023-02-13T19:39:16.689Z,62
2023-02-13T19:40:18.961Z,62
2023-02-13T19:41:45.861Z,62
2023-02-13T19:43:25.508Z,62
2023-02-13T19:44:28.111Z,62
2023-02-13T19:45:55.773Z,62
2023-02-13T19:49:15.693Z,62